KCEY/CEY METAR and TAF weather

Enter ICAO airport designator
Station Type Date Time Source
KCEY METAR 2022/05/23 15:15 UTC NOAA

KCEY 231515Z AUTO 04015G18KT 10SM OVC022 14/10 A3018 RMK AO1


Station Type Date Time Source
KCEY Decoded METAR 2022/05/23 15:15 UTC NOAA

Station name not available
May 23, 2022 - 11:15 AM EDT / 2022.05.23 1515 UTC
Wind: from the NE (040 degrees) at 17 MPH (15 KT) gusting to 21 MPH (18 KT):0
Visibility: 10 mile(s):0
Sky conditions: overcast
Temperature: 57 F (14 C)
Dew Point: 50 F (10 C)
Relative Humidity: 76%
Pressure (altimeter): 30.18 in. Hg (1022 hPa)
ob: KCEY 231515Z AUTO 04015G18KT 10SM OVC022 14/10 A3018 RMK AO1
cycle: 15

Station Type Date Time Source
KCEY TAF UTC NOAA

Error!

Example: see airport list